createdAt,value
2023-10-01T00:00:23.293Z,0.00
2023-10-01T00:01:23.566Z,0.00
2023-10-01T00:02:23.691Z,0.00
2023-10-01T00:03:23.799Z,0.00
2023-10-01T00:04:23.992Z,0.00
2023-10-01T00:05:24.150Z,0.00
2023-10-01T00:06:24.364Z,0.00
2023-10-01T00:07:24.507Z,0.00
2023-10-01T00:08:24.712Z,0.00
2023-10-01T00:09:24.903Z,0.00
2023-10-01T00:10:25.058Z,0.00
2023-10-01T00:11:25.224Z,0.00
2023-10-01T00:12:25.396Z,0.00
2023-10-01T00:13:25.681Z,0.00
2023-10-01T00:14:28.127Z,0.00
2023-10-01T00:15:25.968Z,0.00
2023-10-01T00:16:26.173Z,0.00
2023-10-01T00:17:26.314Z,0.00
2023-10-01T00:18:26.444Z,0.00
2023-10-01T00:19:26.700Z,0.00
2023-10-01T00:20:26.772Z,0.00
2023-10-01T00:21:26.939Z,0.00
2023-10-01T00:22:27.116Z,0.00
2023-10-01T00:23:27.288Z,0.00
2023-10-01T00:24:27.432Z,0.00
2023-10-01T00:25:27.664Z,0.00
2023-10-01T00:26:27.833Z,0.00
2023-10-01T00:27:27.988Z,0.00
2023-10-01T00:28:28.180Z,0.00
2023-10-01T00:29:28.333Z,0.00
2023-10-01T00:30:28.492Z,0.00
2023-10-01T00:31:28.755Z,0.00
2023-10-01T00:32:28.880Z,0.00
2023-10-01T00:33:29.072Z,0.00
2023-10-01T00:34:29.231Z,0.00
2023-10-01T00:35:29.428Z,0.00
2023-10-01T00:36:29.575Z,0.00
2023-10-01T00:37:29.767Z,0.00
2023-10-01T00:38:29.967Z,0.00
2023-10-01T00:39:30.129Z,0.00
2023-10-01T00:40:30.491Z,0.00
2023-10-01T00:41:30.496Z,0.00
2023-10-01T00:42:30.689Z,0.00
2023-10-01T00:43:30.882Z,0.00
2023-10-01T00:44:31.024Z,0.00
2023-10-01T00:45:31.264Z,0.00
2023-10-01T00:46:31.566Z,0.00
2023-10-01T00:47:31.591Z,0.00
2023-10-01T00:48:31.785Z,0.00
2023-10-01T00:49:31.930Z,0.00
2023-10-01T00:50:32.070Z,0.00
2023-10-01T00:51:32.277Z,0.00
2023-10-01T00:52:32.426Z,0.00
2023-10-01T00:53:32.639Z,0.00
2023-10-01T00:54:32.796Z,0.00
2023-10-01T00:55:33.029Z,0.00
2023-10-01T00:56:33.180Z,0.00
2023-10-01T00:57:33.354Z,0.00
2023-10-01T00:58:33.584Z,0.00
2023-10-01T00:59:33.728Z,0.00
2023-10-01T01:00:33.873Z,0.00
2023-10-01T01:01:34.187Z,0.00
2023-10-01T01:02:34.489Z,0.00
2023-10-01T01:03:34.557Z,0.00
2023-10-01T01:04:34.618Z,0.00
2023-10-01T01:05:34.775Z,0.00
2023-10-01T01:06:34.958Z,0.00
2023-10-01T01:07:35.101Z,0.00
2023-10-01T01:08:35.627Z,0.00
2023-10-01T01:09:35.457Z,0.00
2023-10-01T01:10:35.608Z,0.00
2023-10-01T01:11:35.819Z,0.00
2023-10-01T01:12:35.973Z,0.00
2023-10-01T01:13:36.183Z,0.00
2023-10-01T01:14:36.341Z,0.00
2023-10-01T01:15:36.531Z,0.00
2023-10-01T01:16:36.739Z,0.00
2023-10-01T01:17:36.864Z,0.00
2023-10-01T01:18:37.054Z,0.00
2023-10-01T01:19:37.159Z,0.00
2023-10-01T01:20:37.353Z,0.00
2023-10-01T01:21:37.538Z,0.00
2023-10-01T01:22:37.712Z,0.00
2023-10-01T01:23:37.961Z,0.00
2023-10-01T01:24:38.064Z,0.00
2023-10-01T01:25:38.273Z,0.00
2023-10-01T01:26:38.433Z,0.00
2023-10-01T01:27:38.583Z,0.00
2023-10-01T01:28:38.803Z,0.00
2023-10-01T01:29:38.958Z,0.00
2023-10-01T01:30:39.141Z,0.00
2023-10-01T01:31:39.402Z,0.00
2023-10-01T01:32:39.573Z,0.00
2023-10-01T01:33:39.692Z,0.00
2023-10-01T01:34:39.835Z,0.00
2023-10-01T01:35:40.027Z,0.00
2023-10-01T01:36:40.184Z,0.00
2023-10-01T01:37:40.348Z,0.00
2023-10-01T01:38:40.563Z,0.00
2023-10-01T01:39:40.702Z,0.00
2023-10-01T01:40:40.887Z,0.00
2023-10-01T01:41:41.069Z,0.00
2023-10-01T01:42:41.293Z,0.00
2023-10-01T01:43:41.453Z,0.00
2023-10-01T01:44:41.602Z,0.00
2023-10-01T01:45:41.774Z,0.00
2023-10-01T01:46:42.065Z,0.00
2023-10-01T01:47:42.332Z,0.00
2023-10-01T01:48:42.497Z,0.00
2023-10-01T01:49:42.478Z,0.00
2023-10-01T01:50:42.677Z,0.00
2023-10-01T01:51:42.851Z,0.00
2023-10-01T01:52:43.056Z,0.00
2023-10-01T01:53:43.219Z,0.00
2023-10-01T01:54:43.478Z,0.00
2023-10-01T01:55:43.549Z,0.00
2023-10-01T01:56:43.744Z,0.00
2023-10-01T01:57:43.904Z,0.00
2023-10-01T01:58:44.105Z,0.00
2023-10-01T01:59:44.216Z,0.00
2023-10-01T02:00:45.426Z,0.00
2023-10-01T02:01:44.708Z,0.00
2023-10-01T02:02:44.944Z,0.00
2023-10-01T02:03:45.019Z,0.00
2023-10-01T02:04:45.129Z,0.00
2023-10-01T02:05:45.303Z,0.00
2023-10-01T02:06:45.484Z,0.00
2023-10-01T02:07:45.702Z,0.00
2023-10-01T02:08:45.855Z,0.00
2023-10-01T02:09:46.027Z,0.00
2023-10-01T02:10:46.226Z,0.00
2023-10-01T02:11:46.373Z,0.00
2023-10-01T02:12:46.567Z,0.00
2023-10-01T02:13:46.756Z,0.00
2023-10-01T02:14:46.903Z,0.00
2023-10-01T02:15:47.081Z,0.00
2023-10-01T02:16:47.255Z,0.00
2023-10-01T02:17:47.444Z,0.00
2023-10-01T02:18:47.625Z,0.00
2023-10-01T02:19:48.080Z,0.00
2023-10-01T02:20:48.015Z,0.00
2023-10-01T02:21:48.154Z,0.00
2023-10-01T02:22:48.343Z,0.00
2023-10-01T02:23:48.506Z,0.00
2023-10-01T02:24:48.693Z,0.00
2023-10-01T02:25:48.869Z,0.00
2023-10-01T02:26:49.020Z,0.00
2023-10-01T02:27:49.232Z,0.00
2023-10-01T02:28:49.367Z,0.00
2023-10-01T02:29:49.594Z,0.00
2023-10-01T02:30:49.833Z,0.00
2023-10-01T02:31:50.086Z,0.00
2023-10-01T02:32:50.191Z,0.00
2023-10-01T02:33:50.384Z,0.00
2023-10-01T02:34:50.468Z,0.00
2023-10-01T02:35:50.689Z,0.00
2023-10-01T02:36:50.815Z,0.00
2023-10-01T02:37:50.986Z,0.00
2023-10-01T02:38:51.175Z,0.00
2023-10-01T02:39:51.403Z,0.00
2023-10-01T02:40:51.553Z,0.00
2023-10-01T02:41:51.693Z,0.00
2023-10-01T02:42:51.918Z,0.00
2023-10-01T02:43:52.096Z,0.00
2023-10-01T02:44:52.183Z,0.00
2023-10-01T02:45:52.344Z,0.00
2023-10-01T02:46:52.693Z,0.00
2023-10-01T02:47:52.760Z,0.00
2023-10-01T02:48:52.892Z,0.00
2023-10-01T02:49:53.037Z,0.00
2023-10-01T02:50:53.406Z,0.00
2023-10-01T02:51:53.443Z,0.00
2023-10-01T02:52:53.652Z,0.00
2023-10-01T02:53:53.779Z,0.00
2023-10-01T02:54:54.009Z,0.00
2023-10-01T02:55:54.240Z,0.00
2023-10-01T02:56:54.482Z,0.00
2023-10-01T02:57:54.549Z,0.00
2023-10-01T02:58:54.677Z,0.00
2023-10-01T02:59:54.894Z,0.00
2023-10-01T03:00:55.119Z,0.00
2023-10-01T03:01:55.271Z,0.00
2023-10-01T03:02:55.826Z,0.00
2023-10-01T03:03:55.617Z,0.00
2023-10-01T03:04:55.740Z,0.00
2023-10-01T03:05:56.009Z,0.00
2023-10-01T03:06:56.316Z,0.00
2023-10-01T03:07:56.273Z,0.00
2023-10-01T03:08:56.501Z,0.00
2023-10-01T03:09:56.644Z,0.00
2023-10-01T03:10:56.863Z,0.00
2023-10-01T03:11:57.005Z,0.00
2023-10-01T03:12:57.248Z,0.00
2023-10-01T03:13:57.340Z,0.00
2023-10-01T03:14:57.539Z,0.00
2023-10-01T03:15:57.746Z,0.00
2023-10-01T03:16:57.941Z,0.00
2023-10-01T03:17:58.385Z,0.00
2023-10-01T03:18:58.520Z,0.00
2023-10-01T03:19:58.420Z,0.00
2023-10-01T03:20:58.652Z,0.00
2023-10-01T03:21:58.818Z,0.00
2023-10-01T03:22:58.959Z,0.00
2023-10-01T03:23:59.103Z,0.00
2023-10-01T03:24:59.347Z,0.00
2023-10-01T03:25:59.474Z,0.00
2023-10-01T03:26:59.671Z,0.00
2023-10-01T03:27:59.879Z,0.00
2023-10-01T03:29:00.267Z,0.00
2023-10-01T03:30:00.208Z,0.00
2023-10-01T03:31:00.489Z,0.00
2023-10-01T03:32:00.553Z,0.00
2023-10-01T03:33:00.769Z,0.00
2023-10-01T03:34:00.937Z,0.00
2023-10-01T03:35:01.068Z,0.00
2023-10-01T03:36:01.314Z,0.00
2023-10-01T03:37:01.642Z,0.00
2023-10-01T03:38:01.612Z,0.00
2023-10-01T03:39:02.028Z,0.00
2023-10-01T03:40:01.962Z,0.00
2023-10-01T03:41:02.075Z,0.00
2023-10-01T03:42:02.223Z,0.00
2023-10-01T03:43:02.464Z,0.00
2023-10-01T03:44:02.578Z,0.00
2023-10-01T03:45:02.788Z,0.00
2023-10-01T03:46:03.011Z,0.00
2023-10-01T03:47:03.211Z,0.00
2023-10-01T03:48:03.383Z,0.00
2023-10-01T03:49:03.771Z,0.00
2023-10-01T03:50:03.634Z,0.00
2023-10-01T03:51:03.832Z,0.00
2023-10-01T03:52:04.031Z,0.00
2023-10-01T03:53:04.202Z,0.00
2023-10-01T03:54:04.335Z,0.00
2023-10-01T03:55:04.553Z,0.00
2023-10-01T03:56:04.684Z,0.00
2023-10-01T03:57:04.896Z,0.00
2023-10-01T03:58:05.162Z,0.00
2023-10-01T03:59:05.227Z,0.00
2023-10-01T04:00:05.407Z,0.00
2023-10-01T04:01:05.656Z,0.00
2023-10-01T04:02:05.808Z,0.00
2023-10-01T04:03:07.068Z,0.00
2023-10-01T04:04:06.188Z,0.00
2023-10-01T04:05:06.284Z,0.00
2023-10-01T04:06:06.470Z,0.00
2023-10-01T04:07:06.635Z,0.00
2023-10-01T04:08:06.794Z,0.00
2023-10-01T04:09:06.981Z,0.00
2023-10-01T04:10:07.162Z,0.00
2023-10-01T04:11:07.330Z,0.00
2023-10-01T04:12:07.476Z,0.00
2023-10-01T04:13:07.725Z,0.00
2023-10-01T04:14:07.861Z,0.00
2023-10-01T04:15:08.009Z,0.00
2023-10-01T04:16:08.225Z,0.00
2023-10-01T04:17:08.475Z,0.00
2023-10-01T04:18:08.548Z,0.00
2023-10-01T04:19:09.204Z,0.00
2023-10-01T04:20:08.913Z,0.00
2023-10-01T04:21:09.047Z,0.00
2023-10-01T04:22:09.289Z,0.00
2023-10-01T04:23:09.400Z,0.00
2023-10-01T04:24:09.618Z,0.00
2023-10-01T04:25:09.844Z,0.00
2023-10-01T04:26:09.958Z,0.00
2023-10-01T04:27:10.192Z,0.00
2023-10-01T04:28:10.348Z,0.00
2023-10-01T04:29:10.479Z,0.00
2023-10-01T04:30:10.670Z,0.00
2023-10-01T04:31:11.631Z,0.00
2023-10-01T04:32:11.025Z,0.00
2023-10-01T04:33:11.174Z,0.00
2023-10-01T04:34:11.423Z,0.00
2023-10-01T04:35:11.550Z,0.00
2023-10-01T04:36:11.703Z,0.00
2023-10-01T04:37:11.957Z,0.00
2023-10-01T04:38:12.059Z,0.00
2023-10-01T04:39:12.293Z,0.00
2023-10-01T04:40:12.447Z,0.00
2023-10-01T04:41:12.618Z,0.00
2023-10-01T04:42:12.777Z,0.00
2023-10-01T04:43:13.197Z,0.00
2023-10-01T04:44:13.153Z,0.00
2023-10-01T04:45:13.306Z,0.00
2023-10-01T04:46:13.495Z,0.00
2023-10-01T04:47:13.722Z,0.00
2023-10-01T04:48:13.803Z,0.00
2023-10-01T04:49:29.374Z,0.00
2023-10-01T04:50:15.196Z,0.00
2023-10-01T04:51:14.354Z,0.00
2023-10-01T04:52:14.516Z,0.00
2023-10-01T04:53:14.759Z,0.00
2023-10-01T04:54:14.887Z,0.00
2023-10-01T04:55:23.374Z,0.00
2023-10-01T04:56:16.299Z,0.00
2023-10-01T04:57:15.429Z,0.00
2023-10-01T04:58:15.648Z,0.00
2023-10-01T04:59:15.799Z,0.00
2023-10-01T05:00:16.009Z,0.00
2023-10-01T05:01:16.216Z,0.00
2023-10-01T05:02:16.363Z,0.00
2023-10-01T05:03:16.459Z,0.00
2023-10-01T05:04:16.737Z,0.00
2023-10-01T05:05:16.839Z,0.00
2023-10-01T05:06:16.979Z,0.00
2023-10-01T05:07:17.186Z,0.00
2023-10-01T05:08:17.325Z,0.00
2023-10-01T05:09:17.524Z,0.00
2023-10-01T05:10:17.736Z,0.00
2023-10-01T05:11:17.880Z,5.62
2023-10-01T05:12:18.014Z,5.62
2023-10-01T05:13:18.266Z,5.62
2023-10-01T05:14:18.376Z,5.62
2023-10-01T05:15:18.820Z,5.62
2023-10-01T05:16:18.793Z,5.62
2023-10-01T05:17:18.980Z,5.62
2023-10-01T05:18:19.120Z,5.62
2023-10-01T05:19:19.343Z,5.62
2023-10-01T05:20:19.473Z,5.62
2023-10-01T05:21:19.737Z,11.25
2023-10-01T05:22:19.929Z,11.25
2023-10-01T05:23:19.971Z,11.25
2023-10-01T05:24:20.165Z,11.25
2023-10-01T05:25:20.400Z,11.25
2023-10-01T05:26:20.509Z,11.25
2023-10-01T05:27:21.684Z,11.25
2023-10-01T05:28:20.911Z,16.88
2023-10-01T05:29:21.040Z,16.88
2023-10-01T05:30:21.213Z,16.88
2023-10-01T05:31:21.467Z,16.88
2023-10-01T05:32:21.673Z,16.88
2023-10-01T05:33:21.785Z,16.88
2023-10-01T05:34:21.948Z,16.88
2023-10-01T05:35:22.096Z,22.50
2023-10-01T05:36:22.300Z,22.50
2023-10-01T05:37:22.496Z,22.50
2023-10-01T05:38:22.642Z,22.50
2023-10-01T05:39:22.854Z,28.12
2023-10-01T05:40:23.027Z,33.75
2023-10-01T05:41:23.123Z,33.75
2023-10-01T05:42:23.304Z,39.38
2023-10-01T05:43:23.530Z,45.00
2023-10-01T05:44:25.104Z,45.00
2023-10-01T05:45:23.840Z,50.62
2023-10-01T05:46:24.420Z,50.62
2023-10-01T05:47:24.295Z,56.25
2023-10-01T05:48:24.754Z,56.25
2023-10-01T05:49:24.534Z,61.88
2023-10-01T05:50:24.662Z,67.50
2023-10-01T05:51:24.868Z,67.50
2023-10-01T05:52:25.103Z,73.12
2023-10-01T05:53:25.220Z,78.75
2023-10-01T05:54:25.389Z,78.75
2023-10-01T05:55:25.640Z,84.38
2023-10-01T05:56:25.771Z,84.38
2023-10-01T05:57:25.877Z,90.00
2023-10-01T05:58:26.107Z,84.38
2023-10-01T05:59:26.260Z,84.38
2023-10-01T06:00:26.425Z,90.00
2023-10-01T06:01:26.680Z,90.00
2023-10-01T06:02:26.749Z,90.00
2023-10-01T06:03:27.016Z,90.00
2023-10-01T06:04:27.157Z,95.62
2023-10-01T06:05:27.267Z,95.62
2023-10-01T06:06:27.432Z,95.62
2023-10-01T06:07:27.607Z,95.62
2023-10-01T06:08:27.758Z,95.62
2023-10-01T06:09:27.914Z,101.25
2023-10-01T06:10:28.198Z,101.25
2023-10-01T06:11:28.220Z,101.25
2023-10-01T06:12:28.398Z,101.25
2023-10-01T06:13:28.613Z,101.25
2023-10-01T06:14:28.747Z,106.88
2023-10-01T06:15:28.969Z,106.88
2023-10-01T06:16:29.172Z,112.50
2023-10-01T06:17:29.332Z,118.12
2023-10-01T06:18:29.451Z,118.12
2023-10-01T06:19:29.706Z,123.75
2023-10-01T06:20:29.857Z,135.00
2023-10-01T06:21:29.981Z,135.00
2023-10-01T06:22:30.181Z,140.62
2023-10-01T06:23:30.308Z,146.25
2023-10-01T06:24:30.478Z,157.50
2023-10-01T06:25:30.719Z,163.12
2023-10-01T06:26:30.839Z,174.38
2023-10-01T06:27:31.011Z,180.00
2023-10-01T06:28:31.220Z,191.25
2023-10-01T06:29:31.357Z,208.12
2023-10-01T06:30:31.521Z,213.75
2023-10-01T06:31:31.772Z,225.00
2023-10-01T06:32:31.990Z,236.25
2023-10-01T06:33:32.036Z,247.50
2023-10-01T06:34:32.249Z,258.75
2023-10-01T06:35:32.379Z,241.88
2023-10-01T06:36:32.581Z,236.25
2023-10-01T06:37:32.765Z,247.50
2023-10-01T06:38:32.906Z,253.12
2023-10-01T06:39:33.085Z,253.12
2023-10-01T06:40:33.318Z,247.50
2023-10-01T06:41:33.405Z,247.50
2023-10-01T06:42:33.610Z,253.12
2023-10-01T06:43:33.825Z,247.50
2023-10-01T06:44:33.984Z,241.88
2023-10-01T06:45:34.172Z,236.25
2023-10-01T06:46:34.384Z,236.25
2023-10-01T06:47:34.589Z,241.88
2023-10-01T06:48:34.802Z,247.50
2023-10-01T06:49:34.916Z,253.12
2023-10-01T06:50:35.032Z,253.12
2023-10-01T06:51:35.209Z,258.75
2023-10-01T06:52:35.454Z,264.38
2023-10-01T06:53:35.550Z,270.00
2023-10-01T06:54:35.731Z,270.00
2023-10-01T06:55:35.938Z,270.00
2023-10-01T06:56:37.282Z,270.00
2023-10-01T06:57:36.243Z,275.62
2023-10-01T06:58:36.449Z,281.25
2023-10-01T06:59:36.583Z,281.25
2023-10-01T07:00:36.753Z,286.88
2023-10-01T07:01:37.043Z,286.88
2023-10-01T07:02:37.148Z,298.12
2023-10-01T07:03:37.367Z,303.75
2023-10-01T07:04:37.540Z,315.00
2023-10-01T07:05:37.640Z,320.62
2023-10-01T07:06:37.800Z,326.25
2023-10-01T07:07:38.042Z,331.88
2023-10-01T07:08:38.205Z,331.88
2023-10-01T07:09:38.305Z,331.88
2023-10-01T07:10:38.525Z,331.88
2023-10-01T07:11:38.648Z,337.50
2023-10-01T07:12:38.825Z,337.50
2023-10-01T07:13:39.010Z,337.50
2023-10-01T07:14:39.162Z,331.88
2023-10-01T07:15:39.335Z,326.25
2023-10-01T07:16:39.584Z,343.12
2023-10-01T07:17:39.736Z,360.00
2023-10-01T07:18:39.833Z,365.62
2023-10-01T07:19:40.032Z,365.62
2023-10-01T07:20:40.179Z,360.00
2023-10-01T07:21:40.355Z,354.38
2023-10-01T07:22:40.588Z,365.62
2023-10-01T07:23:40.692Z,399.38
2023-10-01T07:24:40.890Z,438.75
2023-10-01T07:25:41.063Z,466.88
2023-10-01T07:26:41.257Z,444.38
2023-10-01T07:27:41.428Z,444.38
2023-10-01T07:28:41.628Z,466.88
2023-10-01T07:29:41.727Z,478.12
2023-10-01T07:30:41.930Z,455.62
2023-10-01T07:31:42.133Z,427.50
2023-10-01T07:32:42.393Z,416.25
2023-10-01T07:33:42.500Z,421.88
2023-10-01T07:34:42.701Z,438.75
2023-10-01T07:35:42.788Z,427.50
2023-10-01T07:36:42.971Z,405.00
2023-10-01T07:37:43.122Z,365.62
2023-10-01T07:38:43.322Z,331.88
2023-10-01T07:39:43.488Z,309.38
2023-10-01T07:40:43.672Z,286.88
2023-10-01T07:41:43.843Z,281.25
2023-10-01T07:42:44.269Z,275.62
2023-10-01T07:43:44.192Z,275.62
2023-10-01T07:44:44.390Z,270.00
2023-10-01T07:45:44.529Z,275.62
2023-10-01T07:46:44.763Z,275.62
2023-10-01T07:47:44.864Z,281.25
2023-10-01T07:48:45.089Z,281.25
2023-10-01T07:49:45.238Z,275.62
2023-10-01T07:50:45.391Z,270.00
2023-10-01T07:51:45.549Z,270.00
2023-10-01T07:52:45.732Z,275.62
2023-10-01T07:53:45.920Z,275.62
2023-10-01T07:54:46.082Z,281.25
2023-10-01T07:55:46.258Z,281.25
2023-10-01T07:56:46.415Z,286.88
2023-10-01T07:57:46.583Z,292.50
2023-10-01T07:58:56.435Z,298.12
2023-10-01T07:59:48.023Z,298.12
2023-10-01T08:00:47.198Z,298.12
2023-10-01T08:01:47.611Z,303.75
2023-10-01T08:02:47.509Z,298.12
2023-10-01T08:03:47.649Z,292.50
2023-10-01T08:04:47.830Z,281.25
2023-10-01T08:05:47.954Z,281.25
2023-10-01T08:06:48.118Z,275.62
2023-10-01T08:07:48.329Z,275.62
2023-10-01T08:08:48.548Z,275.62
2023-10-01T08:09:48.652Z,270.00
2023-10-01T08:10:48.835Z,270.00
2023-10-01T08:11:48.992Z,275.62
2023-10-01T08:12:49.179Z,286.88
2023-10-01T08:13:49.339Z,303.75
2023-10-01T08:14:49.505Z,331.88
2023-10-01T08:15:49.687Z,354.38
2023-10-01T08:16:50.008Z,371.25
2023-10-01T08:17:50.099Z,393.75
2023-10-01T08:18:50.202Z,421.88
2023-10-01T08:19:50.401Z,438.75
2023-10-01T08:20:50.578Z,427.50
2023-10-01T08:21:50.710Z,399.38
2023-10-01T08:22:50.889Z,376.88
2023-10-01T08:23:51.085Z,365.62
2023-10-01T08:24:51.248Z,360.00
2023-10-01T08:25:51.413Z,348.75
2023-10-01T08:26:51.611Z,337.50
2023-10-01T08:27:51.749Z,337.50
2023-10-01T08:28:51.935Z,337.50
2023-10-01T08:29:52.108Z,331.88
2023-10-01T08:30:52.322Z,343.12
2023-10-01T08:31:52.506Z,360.00
2023-10-01T08:32:52.599Z,371.25
2023-10-01T08:33:52.841Z,388.12
2023-10-01T08:34:52.918Z,416.25
2023-10-01T08:35:53.075Z,438.75
2023-10-01T08:36:53.240Z,461.25
2023-10-01T08:37:53.423Z,500.62
2023-10-01T08:38:53.591Z,545.62
2023-10-01T08:39:53.792Z,579.38
2023-10-01T08:40:53.942Z,613.12
2023-10-01T08:41:54.108Z,646.88
2023-10-01T08:42:54.335Z,686.25
2023-10-01T08:43:54.474Z,725.62
2023-10-01T08:44:54.648Z,765.00
2023-10-01T08:45:54.842Z,804.38
2023-10-01T08:46:55.134Z,916.88
2023-10-01T08:47:55.164Z,933.75
2023-10-01T08:48:55.318Z,961.88
2023-10-01T08:49:55.521Z,1170.00
2023-10-01T08:50:55.651Z,973.12
2023-10-01T08:51:55.852Z,1130.62
2023-10-01T08:52:55.999Z,1321.88
2023-10-01T08:53:56.177Z,1254.38
2023-10-01T08:54:56.415Z,1085.62
2023-10-01T08:55:56.489Z,1057.50
2023-10-01T08:56:56.649Z,770.62
2023-10-01T08:57:56.842Z,860.62
2023-10-01T08:58:57.014Z,1006.88
2023-10-01T08:59:57.201Z,787.50
2023-10-01T09:00:57.368Z,883.12
2023-10-01T09:01:57.622Z,1113.75
2023-10-01T09:02:57.801Z,945.00
2023-10-01T09:03:57.896Z,787.50
2023-10-01T09:04:58.053Z,838.12
2023-10-01T09:05:58.222Z,770.62
2023-10-01T09:06:58.371Z,877.50
2023-10-01T09:07:58.576Z,821.25
2023-10-01T09:08:58.999Z,1096.88
2023-10-01T09:09:58.901Z,922.50
2023-10-01T09:10:59.142Z,866.25
2023-10-01T09:11:59.248Z,866.25
2023-10-01T09:12:59.447Z,1035.00
2023-10-01T09:14:00.169Z,849.38
2023-10-01T09:14:59.785Z,1006.88
2023-10-01T09:15:59.943Z,1215.00
2023-10-01T09:17:00.308Z,995.62
2023-10-01T09:18:00.310Z,753.75
2023-10-01T09:19:00.668Z,675.00
2023-10-01T09:20:00.681Z,697.50
2023-10-01T09:21:00.836Z,860.62
2023-10-01T09:22:01.017Z,922.50
2023-10-01T09:23:01.215Z,1006.88
2023-10-01T09:24:01.386Z,888.75
2023-10-01T09:25:01.621Z,838.12
2023-10-01T09:26:01.770Z,759.38
2023-10-01T09:27:01.931Z,714.38
2023-10-01T09:28:02.211Z,776.25
2023-10-01T09:29:02.304Z,776.25
2023-10-01T09:30:02.541Z,843.75
2023-10-01T09:31:02.693Z,1192.50
2023-10-01T09:32:02.844Z,1158.75
2023-10-01T09:33:03.048Z,978.75
2023-10-01T09:34:03.184Z,1254.38
2023-10-01T09:35:03.300Z,995.62
2023-10-01T09:36:03.474Z,1282.50
2023-10-01T09:37:03.694Z,871.88
2023-10-01T09:38:03.824Z,2047.50
2023-10-01T09:39:03.992Z,1681.88
2023-10-01T09:40:04.238Z,1051.88
2023-10-01T09:41:04.345Z,826.88
2023-10-01T09:42:04.522Z,1321.88
2023-10-01T09:43:05.105Z,1743.75
2023-10-01T09:44:04.876Z,1282.50
2023-10-01T09:45:05.071Z,1361.25
2023-10-01T09:46:05.395Z,866.25
2023-10-01T09:47:05.465Z,843.75
2023-10-01T09:48:05.632Z,956.25
2023-10-01T09:49:05.746Z,2525.62
2023-10-01T09:50:05.963Z,3397.50
2023-10-01T09:51:06.104Z,2919.38
2023-10-01T09:52:06.305Z,2643.75
2023-10-01T09:53:06.489Z,2373.75
2023-10-01T09:54:06.595Z,1608.75
2023-10-01T09:55:06.839Z,939.38
2023-10-01T09:56:06.951Z,573.75
2023-10-01T09:57:07.167Z,478.12
2023-10-01T09:58:07.316Z,433.12
2023-10-01T09:59:07.465Z,399.38
2023-10-01T10:00:07.660Z,388.12
2023-10-01T10:01:07.862Z,393.75
2023-10-01T10:02:08.143Z,410.62
2023-10-01T10:03:08.221Z,421.88
2023-10-01T10:04:08.418Z,427.50
2023-10-01T10:05:08.601Z,438.75
2023-10-01T10:06:08.693Z,450.00
2023-10-01T10:07:08.874Z,461.25
2023-10-01T10:08:09.023Z,466.88
2023-10-01T10:09:09.204Z,461.25
2023-10-01T10:10:09.444Z,444.38
2023-10-01T10:11:09.532Z,433.12
2023-10-01T10:12:09.809Z,405.00
2023-10-01T10:13:09.925Z,371.25
2023-10-01T10:14:10.119Z,343.12
2023-10-01T10:15:10.259Z,315.00
2023-10-01T10:16:10.550Z,331.88
2023-10-01T10:17:10.737Z,354.38
2023-10-01T10:18:10.776Z,388.12
2023-10-01T10:19:11.021Z,416.25
2023-10-01T10:20:11.145Z,433.12
2023-10-01T10:21:11.282Z,466.88
2023-10-01T10:22:11.475Z,489.38
2023-10-01T10:23:11.586Z,506.25
2023-10-01T10:24:11.818Z,540.00
2023-10-01T10:25:11.975Z,551.25
2023-10-01T10:26:12.137Z,562.50
2023-10-01T10:27:12.294Z,579.38
2023-10-01T10:28:12.524Z,601.88
2023-10-01T10:29:12.621Z,618.75
2023-10-01T10:30:12.769Z,618.75
2023-10-01T10:31:13.088Z,618.75
2023-10-01T10:32:13.282Z,607.50
2023-10-01T10:33:13.409Z,596.25
2023-10-01T10:34:13.572Z,585.00
2023-10-01T10:35:13.669Z,573.75
2023-10-01T10:36:13.840Z,562.50
2023-10-01T10:37:14.061Z,556.88
2023-10-01T10:38:14.171Z,545.62
2023-10-01T10:39:14.386Z,534.38
2023-10-01T10:40:15.404Z,528.75
2023-10-01T10:41:14.711Z,545.62
2023-10-01T10:42:14.877Z,556.88
2023-10-01T10:43:15.137Z,540.00
2023-10-01T10:44:15.204Z,517.50
2023-10-01T10:45:15.384Z,495.00
2023-10-01T10:46:15.623Z,506.25
2023-10-01T10:47:15.697Z,500.62
2023-10-01T10:48:16.002Z,489.38
2023-10-01T10:49:16.051Z,466.88
2023-10-01T10:50:16.201Z,433.12
2023-10-01T10:51:23.191Z,427.50
2023-10-01T10:52:17.535Z,433.12
2023-10-01T10:53:16.716Z,421.88
2023-10-01T10:54:16.872Z,433.12
2023-10-01T10:55:17.102Z,416.25
2023-10-01T10:56:17.383Z,433.12
2023-10-01T10:57:17.386Z,438.75
2023-10-01T10:58:17.590Z,444.38
2023-10-01T10:59:17.735Z,444.38
2023-10-01T11:00:17.906Z,433.12
2023-10-01T11:01:18.431Z,427.50
2023-10-01T11:02:18.967Z,405.00
2023-10-01T11:03:19.907Z,388.12
2023-10-01T11:04:18.825Z,410.62
2023-10-01T11:05:18.758Z,427.50
2023-10-01T11:06:19.008Z,450.00
2023-10-01T11:07:19.126Z,461.25
2023-10-01T11:08:19.221Z,466.88
2023-10-01T11:09:19.453Z,472.50
2023-10-01T11:10:19.641Z,500.62
2023-10-01T11:11:34.232Z,528.75
2023-10-01T11:12:21.148Z,528.75
2023-10-01T11:13:20.111Z,523.12
2023-10-01T11:14:20.308Z,540.00
2023-10-01T11:15:20.449Z,562.50
2023-10-01T11:16:20.680Z,528.75
2023-10-01T11:17:20.779Z,540.00
2023-10-01T11:18:21.016Z,540.00
2023-10-01T11:19:21.139Z,528.75
2023-10-01T11:20:21.297Z,495.00
2023-10-01T11:21:21.509Z,455.62
2023-10-01T11:22:22.151Z,427.50
2023-10-01T11:23:21.921Z,410.62
2023-10-01T11:24:22.014Z,405.00
2023-10-01T11:25:22.220Z,393.75
2023-10-01T11:26:22.487Z,393.75
2023-10-01T11:27:22.547Z,393.75
2023-10-01T11:28:22.705Z,393.75
2023-10-01T11:29:22.890Z,393.75
2023-10-01T11:30:23.085Z,393.75
2023-10-01T11:31:23.334Z,393.75
2023-10-01T11:32:23.585Z,382.50
2023-10-01T11:33:23.766Z,388.12
2023-10-01T11:34:23.823Z,393.75
2023-10-01T11:35:23.918Z,388.12
2023-10-01T11:36:24.100Z,382.50
2023-10-01T11:37:24.297Z,382.50
2023-10-01T11:38:24.428Z,371.25
2023-10-01T11:39:24.586Z,365.62
2023-10-01T11:40:24.805Z,376.88
2023-10-01T11:41:24.940Z,376.88
2023-10-01T11:42:25.112Z,360.00
2023-10-01T11:43:25.290Z,343.12
2023-10-01T11:44:25.467Z,343.12
2023-10-01T11:45:25.633Z,354.38
2023-10-01T11:46:26.737Z,354.38
2023-10-01T11:47:26.009Z,354.38
2023-10-01T11:48:26.177Z,371.25
2023-10-01T11:49:26.350Z,393.75
2023-10-01T11:50:26.615Z,405.00
2023-10-01T11:51:26.841Z,421.88
2023-10-01T11:52:27.218Z,450.00
2023-10-01T11:53:27.001Z,461.25
2023-10-01T11:54:27.165Z,472.50
2023-10-01T11:55:27.381Z,483.75
2023-10-01T11:56:27.531Z,489.38
2023-10-01T11:57:27.683Z,500.62
2023-10-01T11:58:27.880Z,483.75
2023-10-01T11:59:28.012Z,495.00
2023-10-01T12:00:28.193Z,523.12
2023-10-01T12:01:28.424Z,562.50
2023-10-01T12:02:28.545Z,590.62
2023-10-01T12:03:30.577Z,596.25
2023-10-01T12:04:28.960Z,590.62
2023-10-01T12:05:29.082Z,573.75
2023-10-01T12:06:29.289Z,556.88
2023-10-01T12:07:29.526Z,585.00
2023-10-01T12:08:29.610Z,641.25
2023-10-01T12:09:29.840Z,630.00
2023-10-01T12:10:30.050Z,579.38
2023-10-01T12:11:30.138Z,545.62
2023-10-01T12:12:30.316Z,517.50
2023-10-01T12:13:30.584Z,517.50
2023-10-01T12:14:31.126Z,528.75
2023-10-01T12:15:31.259Z,545.62
2023-10-01T12:16:31.746Z,562.50
2023-10-01T12:17:31.184Z,556.88
2023-10-01T12:18:31.379Z,545.62
2023-10-01T12:19:31.714Z,534.38
2023-10-01T12:20:31.788Z,523.12
2023-10-01T12:21:31.889Z,506.25
2023-10-01T12:22:32.262Z,506.25
2023-10-01T12:23:32.200Z,534.38
2023-10-01T12:24:32.380Z,551.25
2023-10-01T12:25:32.570Z,551.25
2023-10-01T12:26:32.694Z,534.38
2023-10-01T12:27:32.886Z,506.25
2023-10-01T12:28:33.084Z,489.38
2023-10-01T12:29:33.319Z,489.38
2023-10-01T12:30:33.410Z,483.75
2023-10-01T12:31:33.647Z,472.50
2023-10-01T12:32:33.799Z,461.25
2023-10-01T12:33:34.500Z,450.00
2023-10-01T12:34:34.272Z,461.25
2023-10-01T12:35:34.357Z,466.88
2023-10-01T12:36:38.386Z,455.62
2023-10-01T12:37:34.702Z,433.12
2023-10-01T12:38:34.829Z,433.12
2023-10-01T12:39:35.678Z,427.50
2023-10-01T12:40:35.225Z,410.62
2023-10-01T12:41:35.513Z,410.62
2023-10-01T12:42:35.544Z,421.88
2023-10-01T12:43:35.807Z,450.00
2023-10-01T12:44:35.896Z,472.50
2023-10-01T12:45:36.296Z,495.00
2023-10-01T12:46:36.317Z,489.38
2023-10-01T12:47:36.418Z,472.50
2023-10-01T12:48:36.583Z,495.00
2023-10-01T12:49:36.768Z,472.50
2023-10-01T12:50:36.948Z,455.62
2023-10-01T12:51:37.120Z,472.50